Time;durP1;ratioP1;P1;durP2;ratioP2;P2;SDS_P1;SDS_P2;PMS_P1;PMS_P2;Temp;Humidity;BMP_temperature;BMP_pressure;BME280_temperature;BME280_humidity;BME280_pressure;Samples;Min_cycle;Max_cycle;Signal;HPM_P1;HPM_P2
2022/06/26 00:01:58;;;;;;;3.30;2.90;;;15.70;99.90;;;;;;4147677;28;20260;-69
2022/06/26 00:03:59;;;;;;;3.73;3.33;;;15.80;99.90;;;;;;4148034;28;20178;-69
2022/06/26 00:05:59;;;;;;;3.40;3.10;;;15.70;99.90;;;;;;4148252;28;20186;-69
2022/06/26 00:08:00;;;;;;;5.47;3.50;;;15.60;99.90;;;;;;4148099;28;20181;-69
2022/06/26 00:10:02;;;;;;;3.43;2.83;;;15.60;99.90;;;;;;4148228;28;20174;-69
2022/06/26 00:12:03;;;;;;;3.20;2.63;;;15.70;99.90;;;;;;4147449;28;20292;-70
2022/06/26 00:14:03;;;;;;;3.90;3.50;;;15.80;99.90;;;;;;4130977;28;20281;-69
2022/06/26 00:16:04;;;;;;;3.10;2.53;;;15.60;99.90;;;;;;4148231;28;20589;-69
2022/06/26 00:18:05;;;;;;;5.00;3.50;;;15.60;99.90;;;;;;4148057;28;20750;-70
2022/06/26 00:20:06;;;;;;;4.37;3.63;;;15.60;99.90;;;;;;4148089;28;20186;-69
2022/06/26 00:22:08;;;;;;;6.23;4.00;;;15.60;99.90;;;;;;4129931;28;20214;-69
2022/06/26 00:24:09;;;;;;;6.17;3.80;;;15.60;99.90;;;;;;4147964;28;20170;-70
2022/06/26 00:26:09;;;;;;;4.13;3.73;;;15.50;99.90;;;;;;4148175;28;20205;-69
2022/06/26 00:28:10;;;;;;;4.70;4.20;;;15.50;99.90;;;;;;4147877;28;20660;-70
2022/06/26 00:30:10;;;;;;;5.33;3.70;;;15.50;99.90;;;;;;4147969;28;20649;-70
2022/06/26 00:32:11;;;;;;;5.77;3.70;;;15.50;99.90;;;;;;4147255;28;20619;-69
2022/06/26 00:34:11;;;;;;;4.57;4.07;;;15.60;99.90;;;;;;4147886;28;20180;-69
2022/06/26 00:36:12;;;;;;;5.17;4.40;;;15.60;99.90;;;;;;4147868;28;20182;-70
2022/06/26 00:38:13;;;;;;;4.87;3.37;;;15.70;99.90;;;;;;4130292;28;20234;-70
2022/06/26 00:40:13;;;;;;;4.00;3.17;;;15.60;99.90;;;;;;4147628;28;20174;-70
2022/06/26 00:42:14;;;;;;;3.87;3.47;;;15.60;99.90;;;;;;4147306;28;20214;-70
2022/06/26 00:44:20;;;;;;;4.17;3.77;;;15.60;99.90;;;;;;4147582;28;20181;-71
2022/06/26 00:46:24;;;;;;;4.73;3.73;;;15.70;99.90;;;;;;4147735;28;20836;-70
2022/06/26 00:48:25;;;;;;;4.27;3.87;;;15.80;99.90;;;;;;4147611;28;20169;-70
2022/06/26 00:50:25;;;;;;;4.07;3.77;;;15.70;99.90;;;;;;4147425;28;20182;-70
2022/06/26 00:52:27;;;;;;;4.17;3.77;;;15.70;99.90;;;;;;4146812;28;20209;-70
2022/06/26 00:54:28;;;;;;;3.57;3.20;;;15.70;99.90;;;;;;4147568;28;20178;-70
2022/06/26 00:56:29;;;;;;;5.77;3.80;;;15.70;99.90;;;;;;4147540;28;20178;-70
2022/06/26 00:58:30;;;;;;;4.80;3.70;;;15.60;99.90;;;;;;4130198;28;20211;-71
2022/06/26 01:00:30;;;;;;;5.80;3.70;;;15.60;99.90;;;;;;4147446;28;20197;-71
2022/06/26 01:02:31;;;;;;;5.53;3.93;;;15.60;99.90;;;;;;4146779;28;20229;-71
2022/06/26 01:04:31;;;;;;;3.40;3.07;;;15.60;99.90;;;;;;4147532;28;20182;-71
2022/06/26 01:06:34;;;;;;;3.70;3.30;;;15.50;99.90;;;;;;4147386;28;20182;-71
2022/06/26 01:08:35;;;;;;;4.60;3.80;;;15.50;99.90;;;;;;4129746;28;20186;-71
2022/06/26 01:10:38;;;;;;;4.13;3.70;;;15.50;99.90;;;;;;4146311;28;20182;-72
2022/06/26 01:12:39;;;;;;;3.67;3.33;;;15.50;99.90;;;;;;4146456;28;20656;-70
2022/06/26 01:14:41;;;;;;;5.33;3.40;;;15.50;99.90;;;;;;4147322;28;20188;-71
2022/06/26 01:16:42;;;;;;;5.17;3.70;;;15.60;99.90;;;;;;4129567;28;20684;-70
2022/06/26 01:18:45;;;;;;;4.57;3.90;;;15.70;99.90;;;;;;4146665;28;20186;-71
2022/06/26 01:20:54;;;;;;;3.70;3.37;;;15.60;99.90;;;;;;4146618;28;20190;-71
2022/06/26 01:23:02;;;;;;;4.00;3.57;;;15.60;99.90;;;;;;4129573;28;20206;-71
2022/06/26 01:25:03;;;;;;;4.07;3.67;;;15.70;99.90;;;;;;4147032;28;20196;-71
2022/06/26 01:27:05;;;;;;;4.30;3.90;;;15.60;99.90;;;;;;4129583;28;20190;-71
2022/06/26 01:29:06;;;;;;;3.97;3.63;;;15.50;99.90;;;;;;4147169;28;20186;-71
2022/06/26 01:31:07;;;;;;;4.07;3.67;;;15.40;99.90;;;;;;4146498;28;20182;-71
2022/06/26 01:33:08;;;;;;;5.80;4.70;;;15.40;99.90;;;;;;4147033;28;20181;-71
2022/06/26 01:35:08;;;;;;;6.27;4.27;;;15.40;99.90;;;;;;4147066;28;20201;-71
2022/06/26 01:37:09;;;;;;;5.50;4.27;;;15.40;99.90;;;;;;4147153;28;20246;-71
2022/06/26 01:39:10;;;;;;;6.07;4.87;;;15.40;99.90;;;;;;4129464;28;20186;-73
2022/06/26 01:41:10;;;;;;;4.53;4.10;;;15.40;99.90;;;;;;4146379;28;20200;-71
2022/06/26 01:43:13;;;;;;;4.97;4.47;;;15.40;99.90;;;;;;4147022;28;20212;-72
2022/06/26 01:45:14;;;;;;;4.37;3.97;;;15.50;99.90;;;;;;4146714;28;20268;-71
2022/06/26 01:47:15;;;;;;;5.80;4.13;;;15.50;99.90;;;;;;4146668;28;20612;-71
2022/06/26 01:49:15;;;;;;;4.40;3.90;;;15.50;99.90;;;;;;4146703;28;20184;-71
2022/06/26 01:51:16;;;;;;;6.20;4.60;;;15.50;99.90;;;;;;4146087;28;20545;-71
2022/06/26 01:53:17;;;;;;;4.93;4.43;;;15.40;99.90;;;;;;4146657;28;20570;-71
2022/06/26 01:55:18;;;;;;;4.93;3.93;;;15.40;99.90;;;;;;4146795;28;20177;-71
2022/06/26 01:57:18;;;;;;;4.80;4.30;;;15.30;99.90;;;;;;4146648;28;20189;-71
2022/06/26 01:59:19;;;;;;;4.53;3.90;;;15.40;99.90;;;;;;4146777;28;20638;-71
2022/06/26 02:01:19;;;;;;;4.70;3.83;;;15.40;99.90;;;;;;4145791;28;20205;-71
2022/06/26 02:03:21;;;;;;;4.70;4.30;;;15.40;99.90;;;;;;4146716;28;20177;-74
2022/06/26 02:05:22;;;;;;;5.13;4.20;;;15.40;99.90;;;;;;4129093;28;20189;-71
2022/06/26 02:07:22;;;;;;;5.53;4.80;;;15.40;99.90;;;;;;4146580;28;20184;-72
2022/06/26 02:14:01;;;;;;;4.30;3.90;;;15.40;99.90;;;;;;4146409;28;20203;-71
2022/06/26 02:16:13;;;;;;;5.17;4.40;;;15.30;99.90;;;;;;4128993;28;20252;-72
2022/06/26 02:18:14;;;;;;;7.43;4.67;;;15.20;99.90;;;;;;4146630;28;20927;-72
2022/06/26 02:20:14;;;;;;;7.10;4.43;;;15.20;99.90;;;;;;4146494;28;20224;-72
2022/06/26 02:22:15;;;;;;;6.47;5.17;;;15.20;99.90;;;;;;4145386;28;20212;-72
2022/06/26 02:24:15;;;;;;;5.93;5.33;;;15.20;99.90;;;;;;4146649;28;20184;-72
2022/06/26 02:26:17;;;;;;;6.23;4.77;;;15.20;99.90;;;;;;4146598;28;20552;-73
2022/06/26 02:28:18;;;;;;;5.87;5.00;;;15.10;99.90;;;;;;4146455;28;20220;-72
2022/06/26 02:30:19;;;;;;;5.53;4.97;;;15.10;99.90;;;;;;4146327;28;20649;-72
2022/06/26 02:32:19;;;;;;;6.83;5.57;;;15.00;99.90;;;;;;4127903;28;20206;-72
2022/06/26 02:34:20;;;;;;;4.77;4.10;;;15.00;99.90;;;;;;4146077;28;20212;-73
2022/06/26 02:36:20;;;;;;;6.67;4.80;;;14.90;99.90;;;;;;4146384;28;20682;-72
2022/06/26 02:38:22;;;;;;;5.37;4.67;;;14.90;99.90;;;;;;4128738;28;20208;-73
2022/06/26 02:40:28;;;;;;;6.33;5.30;;;14.80;99.90;;;;;;4146391;28;20181;-72
2022/06/26 02:42:28;;;;;;;4.63;4.13;;;14.80;99.90;;;;;;4146001;28;20210;-73
2022/06/26 02:44:29;;;;;;;6.10;5.00;;;14.80;99.90;;;;;;4128713;28;20182;-72
2022/06/26 02:46:31;;;;;;;5.00;4.53;;;14.70;99.90;;;;;;4146214;28;20166;-72
2022/06/26 02:48:32;;;;;;;6.93;4.43;;;14.70;99.90;;;;;;4146187;28;20202;-72
2022/06/26 02:50:32;;;;;;;5.10;4.57;;;14.60;99.90;;;;;;4146298;28;20578;-72
2022/06/26 02:52:33;;;;;;;5.47;4.73;;;14.60;99.90;;;;;;4139019;28;20225;-72
2022/06/26 02:54:34;;;;;;;7.23;5.50;;;14.50;99.90;;;;;;4145816;28;20194;-72
2022/06/26 02:56:35;;;;;;;5.70;5.00;;;14.50;99.90;;;;;;4128695;28;20323;-73
2022/06/26 02:58:35;;;;;;;8.40;5.83;;;14.50;99.90;;;;;;4146348;28;20197;-73
2022/06/26 03:00:36;;;;;;;6.77;5.20;;;14.50;99.90;;;;;;4128578;28;20269;-72
2022/06/26 03:02:36;;;;;;;5.93;5.13;;;14.50;99.90;;;;;;4145460;28;20213;-72
2022/06/26 03:04:37;;;;;;;5.33;4.83;;;14.50;99.90;;;;;;4128541;28;20220;-72
2022/06/26 03:06:38;;;;;;;7.43;5.53;;;14.40;99.90;;;;;;4146331;28;20228;-73
2022/06/26 03:08:38;;;;;;;6.20;4.97;;;14.40;99.90;;;;;;4144635;28;20177;-76
2022/06/26 03:10:39;;;;;;;6.07;5.03;;;14.30;99.90;;;;;;4145832;28;20196;-73
2022/06/26 03:12:47;;;;;;;7.33;5.63;;;14.30;99.90;;;;;;4145750;28;20257;-72
2022/06/26 03:14:47;;;;;;;6.20;5.60;;;14.30;99.90;;;;;;4146137;28;20177;-72
2022/06/26 03:16:48;;;;;;;7.50;5.40;;;14.30;99.90;;;;;;4146070;28;20174;-72
2022/06/26 03:18:48;;;;;;;7.17;5.10;;;14.30;99.90;;;;;;4146036;28;20204;-72
2022/06/26 03:20:49;;;;;;;5.57;4.57;;;14.40;99.90;;;;;;4144860;28;20213;-72
2022/06/26 03:22:50;;;;;;;6.33;5.53;;;14.50;99.90;;;;;;4128272;28;20214;-73
2022/06/26 03:24:50;;;;;;;5.77;4.70;;;14.50;99.90;;;;;;4146086;28;20189;-73
2022/06/26 03:26:51;;;;;;;6.80;5.47;;;14.60;99.90;;;;;;4128545;28;20645;-73
2022/06/26 03:28:51;;;;;;;6.80;5.57;;;14.40;99.90;;;;;;4146013;28;20541;-74
2022/06/26 03:30:52;;;;;;;5.93;4.93;;;14.40;99.90;;;;;;4145485;28;20174;-73
2022/06/26 03:32:52;;;;;;;5.10;4.60;;;14.40;99.90;;;;;;4145904;28;20212;-73
2022/06/26 03:34:53;;;;;;;5.80;4.93;;;14.40;99.90;;;;;;4148285;28;20197;-73
2022/06/26 03:36:53;;;;;;;6.67;4.23;;;14.50;99.90;;;;;;4148727;28;20217;-73
2022/06/26 03:38:55;;;;;;;15.87;6.60;;;14.40;99.90;;;;;;4131395;28;20183;-73
2022/06/26 03:40:56;;;;;;;65.93;12.33;;;14.40;99.90;;;;;;4148221;28;20265;-73
2022/06/26 03:42:56;;;;;;;54.13;13.43;;;14.30;99.90;;;;;;4148643;28;20593;-73
2022/06/26 03:44:57;;;;;;;20.70;9.53;;;14.40;99.90;;;;;;4148796;28;20652;-73
2022/06/26 03:46:58;;;;;;;10.67;7.23;;;14.30;99.90;;;;;;4148642;28;20170;-73
2022/06/26 03:48:59;;;;;;;8.77;7.00;;;14.30;99.90;;;;;;4148597;28;20652;-73
2022/06/26 03:51:01;;;;;;;9.43;6.50;;;14.30;99.90;;;;;;4147763;28;20980;-73
2022/06/26 03:53:02;;;;;;;12.73;6.77;;;14.30;99.90;;;;;;4130599;28;20198;-73
2022/06/26 03:55:03;;;;;;;7.03;5.40;;;14.30;99.90;;;;;;4148669;28;20208;-73
2022/06/26 03:57:04;;;;;;;6.70;4.97;;;14.20;99.90;;;;;;4149709;28;20209;-75
2022/06/26 03:59:05;;;;;;;7.53;5.40;;;14.20;99.90;;;;;;4149478;28;20182;-75
2022/06/26 04:01:05;;;;;;;10.83;6.10;;;14.20;99.90;;;;;;4147756;28;20188;-75
2022/06/26 04:03:07;;;;;;;11.93;6.00;;;14.20;99.90;;;;;;4148505;28;20201;-72
2022/06/26 04:05:08;;;;;;;6.57;5.40;;;14.20;99.90;;;;;;4148577;28;20216;-74
2022/06/26 04:07:12;;;;;;;9.77;5.90;;;14.30;99.90;;;;;;4130874;28;20174;-73
2022/06/26 04:09:12;;;;;;;7.70;4.97;;;14.40;99.90;;;;;;4148375;28;20215;-74
2022/06/26 04:11:14;;;;;;;6.57;5.67;;;14.30;99.90;;;;;;4147763;28;20202;-73
2022/06/26 04:13:14;;;;;;;18.63;7.07;;;14.30;99.90;;;;;;4148438;28;20232;-73
2022/06/26 04:15:15;;;;;;;24.90;8.90;;;14.30;99.90;;;;;;4147910;28;20189;-73
2022/06/26 04:17:17;;;;;;;103.00;13.90;;;14.30;99.90;;;;;;4148351;28;20845;-73
2022/06/26 04:19:17;;;;;;;151.67;17.67;;;14.30;99.90;;;;;;4148216;28;20528;-73
2022/06/26 04:21:18;;;;;;;27.27;7.40;;;14.30;99.90;;;;;;4147339;28;20204;-74
2022/06/26 04:23:18;;;;;;;53.47;9.87;;;14.30;99.90;;;;;;4148394;28;20267;-74
2022/06/26 04:25:19;;;;;;;63.43;10.17;;;14.40;99.90;;;;;;4130899;28;20182;-73
2022/06/26 04:27:20;;;;;;;33.93;8.07;;;14.30;99.90;;;;;;4130905;28;20206;-74
2022/06/26 04:29:20;;;;;;;13.37;6.03;;;14.40;99.90;;;;;;4130501;28;20182;-74
2022/06/26 04:31:21;;;;;;;49.40;8.67;;;14.60;99.90;;;;;;4147447;28;20210;-74
2022/06/26 04:33:21;;;;;;;11.27;5.13;;;14.70;99.90;;;;;;4130634;28;20179;-74
2022/06/26 04:35:22;;;;;;;57.43;8.30;;;14.60;99.90;;;;;;4148377;28;20203;-74
2022/06/26 04:37:23;;;;;;;51.53;8.93;;;14.60;99.90;;;;;;4148037;28;20177;-74
2022/06/26 04:39:23;;;;;;;91.70;10.13;;;14.60;99.90;;;;;;4130488;28;20214;-74
2022/06/26 04:41:34;;;;;;;94.00;11.30;;;14.70;99.90;;;;;;4129532;28;20202;-74
2022/06/26 04:43:35;;;;;;;114.70;16.40;;;14.50;99.90;;;;;;4148128;28;20904;-74
2022/06/26 04:45:35;;;;;;;67.67;8.80;;;14.30;99.90;;;;;;4147636;28;20277;-74
2022/06/26 04:47:36;;;;;;;62.33;8.23;;;14.50;99.90;;;;;;4147688;28;20182;-74
2022/06/26 04:49:37;;;;;;;60.47;8.17;;;14.50;99.90;;;;;;4147826;28;20281;-74
2022/06/26 04:51:37;;;;;;;31.70;6.03;;;14.50;99.90;;;;;;4129685;28;20288;-75
2022/06/26 04:53:38;;;;;;;79.53;10.17;;;14.50;99.90;;;;;;4129971;28;20194;-73
2022/06/26 04:55:39;;;;;;;57.37;9.23;;;14.50;99.90;;;;;;4147617;28;20174;-74
2022/06/26 04:57:40;;;;;;;39.13;9.00;;;14.40;99.90;;;;;;4149825;28;20221;-74
2022/06/26 04:59:40;;;;;;;39.70;7.23;;;14.40;99.90;;;;;;4150686;28;20233;-75
2022/06/26 05:01:41;;;;;;;30.33;7.70;;;14.40;99.90;;;;;;4149720;28;20724;-74
2022/06/26 05:03:41;;;;;;;21.07;7.43;;;14.30;99.90;;;;;;4128173;28;20190;-74
2022/06/26 05:05:42;;;;;;;6.00;5.20;;;14.20;99.90;;;;;;4147970;28;20186;-74
2022/06/26 05:07:43;;;;;;;8.77;5.17;;;14.30;99.90;;;;;;4137720;28;20190;-74
2022/06/26 05:09:43;;;;;;;6.90;4.63;;;14.20;99.90;;;;;;4150310;28;20177;-75
2022/06/26 05:11:44;;;;;;;11.63;6.30;;;14.20;99.90;;;;;;4149800;28;20220;-74
2022/06/26 05:13:46;;;;;;;5.07;4.57;;;14.20;99.90;;;;;;4150051;28;20185;-74
2022/06/26 05:15:49;;;;;;;5.53;4.77;;;14.20;99.90;;;;;;4132805;28;20182;-75
2022/06/26 05:17:50;;;;;;;5.03;4.53;;;14.20;99.90;;;;;;4150430;28;20182;-74
2022/06/26 05:19:50;;;;;;;7.07;5.40;;;14.10;99.90;;;;;;4150031;28;20181;-74
2022/06/26 05:21:52;;;;;;;6.07;5.43;;;14.20;99.90;;;;;;4148855;28;20244;-75
2022/06/26 05:23:53;;;;;;;5.30;4.80;;;14.30;99.90;;;;;;4150056;28;20181;-74
2022/06/26 05:25:54;;;;;;;8.80;6.10;;;14.30;99.90;;;;;;4150159;28;20522;-74
2022/06/26 05:27:54;;;;;;;8.83;5.23;;;14.30;99.90;;;;;;4150050;28;20205;-74
2022/06/26 05:29:55;;;;;;;10.53;5.83;;;14.30;99.90;;;;;;4132481;28;20238;-74
2022/06/26 05:31:55;;;;;;;6.07;4.83;;;14.30;99.90;;;;;;4149255;28;20228;-74
2022/06/26 05:33:56;;;;;;;6.67;5.63;;;14.40;99.90;;;;;;4150077;28;20184;-74
2022/06/26 05:35:56;;;;;;;7.60;5.07;;;14.40;99.90;;;;;;4132611;28;20185;-74
2022/06/26 05:37:57;;;;;;;10.07;5.47;;;14.40;99.90;;;;;;4150003;28;20177;-75
2022/06/26 05:39:58;;;;;;;8.40;5.60;;;14.50;99.90;;;;;;4149936;28;20174;-74
2022/06/26 05:41:58;;;;;;;4.80;4.30;;;14.50;99.90;;;;;;4149138;28;20277;-75
2022/06/26 05:43:59;;;;;;;6.80;4.80;;;14.60;99.90;;;;;;4149963;28;20181;-74
2022/06/26 05:45:59;;;;;;;6.00;4.50;;;14.60;99.90;;;;;;4132169;28;20182;-74
2022/06/26 05:48:01;;;;;;;4.27;3.87;;;14.60;99.90;;;;;;4149715;28;20196;-74
2022/06/26 05:50:02;;;;;;;4.83;4.33;;;14.70;99.90;;;;;;4131963;28;20364;-74
2022/06/26 05:52:02;;;;;;;5.03;4.23;;;14.80;99.90;;;;;;4148882;28;20688;-75
2022/06/26 05:54:03;;;;;;;4.60;4.10;;;14.90;99.90;;;;;;4149765;28;20177;-75
2022/06/26 05:56:04;;;;;;;4.57;4.10;;;14.90;99.90;;;;;;4132057;28;20186;-75
2022/06/26 05:58:08;;;;;;;4.20;3.80;;;15.00;99.90;;;;;;4149605;28;20185;-75
2022/06/26 06:00:09;;;;;;;4.60;3.90;;;15.20;99.90;;;;;;4149753;28;20551;-75
2022/06/26 06:02:10;;;;;;;4.27;3.80;;;15.20;99.90;;;;;;4148090;28;20213;-75
2022/06/26 06:04:10;;;;;;;10.37;3.47;;;15.30;99.90;;;;;;4128828;28;20268;-75
2022/06/26 06:06:11;;;;;;;4.17;3.77;;;15.40;99.90;;;;;;4147642;28;20253;-74
2022/06/26 06:08:12;;;;;;;5.20;2.83;;;15.70;99.90;;;;;;4146344;28;20182;-74
2022/06/26 06:10:12;;;;;;;2.70;2.50;;;15.90;99.90;;;;;;4149047;28;20243;-75
2022/06/26 06:12:13;;;;;;;3.73;3.00;;;16.10;99.90;;;;;;4130348;28;20202;-74
2022/06/26 06:14:13;;;;;;;2.50;2.30;;;16.30;99.90;;;;;;4146722;28;20185;-74
2022/06/26 06:16:14;;;;;;;4.27;2.67;;;16.40;99.90;;;;;;4146820;28;20182;-74
2022/06/26 06:18:14;;;;;;;2.77;2.57;;;16.40;99.90;;;;;;4146495;28;20243;-75
2022/06/26 06:20:20;;;;;;;3.17;2.70;;;16.50;99.90;;;;;;4129011;28;20248;-74
2022/06/26 06:22:20;;;;;;;2.90;2.70;;;16.50;99.90;;;;;;4128319;28;20751;-75
2022/06/26 06:24:21;;;;;;;2.43;2.23;;;16.60;99.90;;;;;;4146366;28;20185;-74
2022/06/26 06:26:21;;;;;;;2.30;2.10;;;16.60;99.90;;;;;;4146331;28;20205;-75
2022/06/26 06:28:22;;;;;;;2.40;2.13;;;16.70;99.90;;;;;;4146582;28;20185;-74
2022/06/26 06:30:23;;;;;;;3.27;2.73;;;16.70;99.90;;;;;;4146118;28;20537;-74
2022/06/26 06:32:24;;;;;;;5.33;2.60;;;16.70;99.90;;;;;;4145798;28;20287;-74
2022/06/26 06:34:24;;;;;;;2.37;2.17;;;16.80;99.90;;;;;;4146273;28;20691;-75
2022/06/26 06:36:25;;;;;;;6.30;2.10;;;17.00;99.90;;;;;;4128668;28;20233;-75
2022/06/26 06:38:25;;;;;;;5.90;2.10;;;17.10;99.90;;;;;;4144899;28;20534;-75
2022/06/26 06:40:26;;;;;;;1.90;1.80;;;17.40;99.90;;;;;;4132580;28;20190;-76
2022/06/26 06:42:26;;;;;;;3.10;1.80;;;17.40;99.90;;;;;;4129325;28;20755;-75
2022/06/26 06:44:27;;;;;;;1.80;1.70;;;17.50;99.90;;;;;;4130266;28;20222;-76
2022/06/26 06:46:28;;;;;;;1.90;1.80;;;17.50;99.90;;;;;;4137461;28;20265;-75
2022/06/26 06:48:28;;;;;;;1.70;1.60;;;17.40;99.90;;;;;;4141835;28;20194;-75
2022/06/26 06:50:29;;;;;;;3.97;3.07;;;17.50;99.90;;;;;;4145962;28;20265;-75
2022/06/26 06:52:30;;;;;;;6.30;2.67;;;17.40;99.90;;;;;;4145314;28;20228;-75
2022/06/26 06:54:30;;;;;;;1.90;1.70;;;17.30;99.90;;;;;;4146200;28;20185;-76
2022/06/26 06:56:31;;;;;;;1.80;1.70;;;17.40;99.90;;;;;;4143676;28;20189;-76
2022/06/26 06:58:31;;;;;;;2.23;1.90;;;17.40;99.90;;;;;;4145052;28;20292;-76
2022/06/26 07:00:32;;;;;;;2.10;1.97;;;17.40;99.90;;;;;;4144041;28;20205;-76
2022/06/26 07:02:33;;;;;;;2.33;1.50;;;17.40;99.90;;;;;;4142480;28;20225;-75
2022/06/26 07:04:33;;;;;;;1.93;1.80;;;17.70;99.90;;;;;;4146063;28;20648;-75
2022/06/26 07:06:34;;;;;;;1.60;1.50;;;17.80;99.90;;;;;;4143931;28;20190;-76
2022/06/26 07:08:34;;;;;;;3.77;2.77;;;18.10;99.90;;;;;;4138652;28;20603;-76
2022/06/26 07:10:35;;;;;;;3.47;3.00;;;18.20;99.90;;;;;;4139862;28;20237;-75
2022/06/26 07:12:36;;;;;;;2.40;2.20;;;18.40;99.90;;;;;;4138593;28;20253;-75
2022/06/26 07:14:37;;;;;;;1.60;1.50;;;18.80;99.90;;;;;;4148090;28;20196;-75
2022/06/26 07:16:37;;;;;;;1.97;1.73;;;19.10;99.90;;;;;;4147869;28;20219;-76
2022/06/26 07:18:38;;;;;;;2.00;1.80;;;19.30;99.90;;;;;;4148892;28;20181;-75
2022/06/26 07:20:39;;;;;;;2.30;2.10;;;19.30;99.90;;;;;;4148968;28;20181;-76
2022/06/26 07:22:39;;;;;;;2.47;1.60;;;19.40;99.90;;;;;;4148590;28;20220;-76
2022/06/26 07:24:40;;;;;;;1.70;1.60;;;19.60;98.90;;;;;;4148786;28;20189;-76
2022/06/26 07:26:41;;;;;;;2.63;1.67;;;19.80;99.90;;;;;;4147616;28;20823;-76
2022/06/26 07:28:41;;;;;;;2.23;1.70;;;19.90;99.10;;;;;;4148531;28;20181;-77
2022/06/26 07:30:42;;;;;;;1.87;1.77;;;20.30;98.00;;;;;;4130734;28;20280;-75
2022/06/26 07:32:44;;;;;;;1.67;1.57;;;20.60;95.70;;;;;;4148656;28;20933;-75
2022/06/26 07:34:45;;;;;;;1.80;1.70;;;20.90;95.90;;;;;;4131264;28;20663;-75
2022/06/26 07:36:47;;;;;;;1.97;1.87;;;20.70;96.10;;;;;;4131258;28;20286;-77
2022/06/26 07:38:48;;;;;;;2.23;2.13;;;21.00;93.20;;;;;;4148856;28;20244;-76
2022/06/26 07:40:49;;;;;;;1.73;1.60;;;21.10;91.60;;;;;;4130582;28;20577;-75
2022/06/26 07:42:49;;;;;;;1.50;1.40;;;21.40;89.90;;;;;;4148583;28;20229;-76
2022/06/26 07:44:50;;;;;;;1.63;1.53;;;21.30;89.80;;;;;;4148462;28;20193;-75
2022/06/26 07:46:50;;;;;;;1.60;1.50;;;21.40;91.60;;;;;;4148623;28;20601;-75
2022/06/26 07:48:51;;;;;;;1.60;1.50;;;21.60;90.30;;;;;;4148494;28;20181;-76
2022/06/26 07:50:52;;;;;;;1.67;1.57;;;21.60;89.30;;;;;;4147657;28;20637;-75
2022/06/26 07:52:53;;;;;;;2.30;1.60;;;22.00;92.20;;;;;;4130412;28;20324;-74
2022/06/26 07:54:53;;;;;;;1.40;1.30;;;22.00;87.60;;;;;;4148234;28;20943;-75
2022/06/26 07:56:54;;;;;;;1.60;1.50;;;22.30;86.00;;;;;;4148286;28;20192;-76
2022/06/26 07:58:55;;;;;;;1.93;1.83;;;22.40;90.00;;;;;;4130707;28;20193;-75
2022/06/26 08:00:56;;;;;;;1.60;1.50;;;22.60;82.80;;;;;;4147299;28;20272;-74
2022/06/26 08:03:11;;;;;;;1.50;1.40;;;22.50;81.80;;;;;;4148427;28;20212;-76
2022/06/26 08:05:12;;;;;;;1.60;1.50;;;22.40;74.30;;;;;;4143272;28;20197;-75
2022/06/26 08:07:12;;;;;;;3.07;1.70;;;22.40;77.00;;;;;;4131461;28;20652;-75
2022/06/26 08:09:13;;;;;;;1.70;1.60;;;22.20;84.60;;;;;;4134327;28;20261;-75
2022/06/26 08:11:14;;;;;;;1.67;1.57;;;22.00;92.00;;;;;;4145037;28;20190;-76
2022/06/26 08:13:14;;;;;;;1.97;1.63;;;22.30;92.30;;;;;;4144099;28;20189;-75
2022/06/26 08:15:15;;;;;;;2.03;1.93;;;22.40;90.50;;;;;;4143973;28;20327;-77
2022/06/26 08:17:16;;;;;;;1.77;1.60;;;22.50;78.70;;;;;;4143173;28;20202;-75
2022/06/26 08:19:16;;;;;;;5.07;3.13;;;22.60;80.00;;;;;;4147281;28;20193;-75
2022/06/26 08:23:36;;;;;;;2.53;2.43;;;22.40;79.00;;;;;;4148118;28;20567;-74
2022/06/26 08:25:36;;;;;;;2.53;2.20;;;22.50;74.10;;;;;;4142102;28;20182;-75
2022/06/26 08:27:37;;;;;;;1.80;1.70;;;22.30;78.00;;;;;;4144249;28;20197;-76
2022/06/26 08:29:38;;;;;;;1.80;1.63;;;22.10;77.20;;;;;;4147752;28;20316;-75
2022/06/26 08:31:38;;;;;;;19.70;18.77;;;22.40;75.60;;;;;;4147029;28;20197;-75
2022/06/26 08:33:39;;;;;;;1.53;1.43;;;22.40;74.10;;;;;;4147672;28;20291;-76
2022/06/26 08:35:39;;;;;;;1.73;1.63;;;22.00;74.80;;;;;;4147839;28;20181;-75
2022/06/26 08:37:40;;;;;;;2.00;1.90;;;22.00;82.20;;;;;;4147737;28;20213;-74
2022/06/26 08:39:40;;;;;;;2.10;1.53;;;22.30;79.50;;;;;;4147662;28;20186;-74
2022/06/26 08:41:43;;;;;;;1.67;1.50;;;23.00;74.50;;;;;;4147296;28;20616;-74
2022/06/26 08:43:45;;;;;;;21.97;20.87;;;23.10;74.10;;;;;;4147757;28;20178;-75
2022/06/26 08:45:48;;;;;;;3.67;1.77;;;23.80;67.70;;;;;;4147450;28;20703;-75
2022/06/26 08:47:51;;;;;;;1.73;1.60;;;24.10;66.80;;;;;;4147667;28;20174;-75
2022/06/26 08:49:52;;;;;;;1.83;1.70;;;24.10;68.00;;;;;;4145972;28;20177;-74
2022/06/26 08:51:53;;;;;;;1.80;1.70;;;24.50;62.60;;;;;;4145255;28;20209;-74
2022/06/26 08:53:54;;;;;;;3.10;1.67;;;24.50;61.60;;;;;;4145852;28;20178;-75
2022/06/26 08:55:55;;;;;;;1.93;1.83;;;24.30;61.40;;;;;;4147501;28;20166;-76
2022/06/26 08:57:55;;;;;;;1.73;1.40;;;24.20;62.00;;;;;;4148492;28;20200;-75
2022/06/26 08:59:56;;;;;;;1.70;1.60;;;24.10;63.30;;;;;;4147923;28;20174;-74
2022/06/26 09:01:57;;;;;;;2.07;1.97;;;24.40;62.50;;;;;;4146627;28;20213;-74
2022/06/26 09:03:57;;;;;;;3.17;1.93;;;24.20;61.30;;;;;;4147389;28;20182;-74
2022/06/26 09:05:58;;;;;;;2.13;2.03;;;24.50;63.20;;;;;;4145748;28;20177;-75
2022/06/26 09:07:59;;;;;;;1.70;1.60;;;24.80;58.70;;;;;;4147194;28;20269;-74
2022/06/26 09:10:09;;;;;;;2.33;2.23;;;24.90;57.30;;;;;;4145851;28;20181;-74
2022/06/26 09:12:10;;;;;;;2.30;2.20;;;25.20;55.80;;;;;;4146716;28;20642;-74
2022/06/26 09:14:12;;;;;;;29.63;28.20;;;24.40;56.60;;;;;;4147050;28;20186;-73
2022/06/26 09:16:14;;;;;;;1.10;1.10;;;23.90;58.60;;;;;;4147117;28;20268;-74
2022/06/26 09:18:14;;;;;;;1.57;1.47;;;23.70;58.80;;;;;;4147200;28;20193;-74
2022/06/26 09:20:15;;;;;;;1.50;1.40;;;24.00;60.10;;;;;;4147235;28;20564;-74
2022/06/26 09:22:17;;;;;;;8.20;7.80;;;24.80;60.50;;;;;;4146249;28;20217;-73
2022/06/26 09:24:21;;;;;;;22.70;21.57;;;25.00;54.90;;;;;;4146990;28;20178;-73
2022/06/26 09:26:22;;;;;;;5.40;5.10;;;24.90;53.90;;;;;;4147094;28;20257;-73
2022/06/26 09:28:24;;;;;;;1.17;1.17;;;24.60;54.60;;;;;;4145544;28;20186;-72
2022/06/26 09:30:24;;;;;;;4.23;1.40;;;24.80;58.60;;;;;;4146930;28;20563;-72
2022/06/26 09:32:27;;;;;;;1.40;1.30;;;25.00;54.90;;;;;;4145507;28;20208;-72
2022/06/26 09:34:28;;;;;;;1.83;1.73;;;25.00;53.30;;;;;;4137682;28;20471;-72
2022/06/26 09:36:28;;;;;;;2.10;2.00;;;25.00;54.20;;;;;;4146774;28;20182;-72
2022/06/26 09:38:31;;;;;;;2.17;2.07;;;25.20;52.80;;;;;;4146821;28;20173;-72
2022/06/26 09:40:32;;;;;;;2.40;2.07;;;25.00;53.80;;;;;;4147260;28;20185;-71
2022/06/26 09:42:34;;;;;;;1.50;1.40;;;24.50;54.50;;;;;;4156732;28;20293;-71
2022/06/26 09:44:46;;;;;;;1.37;1.27;;;24.80;54.80;;;;;;4151097;28;20169;-72
2022/06/26 09:46:47;;;;;;;1.37;1.30;;;24.70;55.60;;;;;;4155639;28;20170;-72
2022/06/26 09:48:47;;;;;;;1.33;1.23;;;24.60;55.90;;;;;;4152913;28;20605;-71
2022/06/26 09:50:48;;;;;;;3.50;3.33;;;24.60;57.40;;;;;;4154741;28;20707;-70
2022/06/26 09:52:49;;;;;;;1.80;1.70;;;25.10;53.80;;;;;;4152980;28;20232;-71
2022/06/26 09:54:51;;;;;;;1.33;1.23;;;25.10;53.80;;;;;;4155065;28;20227;-71
2022/06/26 09:56:51;;;;;;;1.57;1.47;;;25.50;53.50;;;;;;4153174;28;20188;-70
2022/06/26 09:58:54;;;;;;;7.13;6.83;;;25.50;53.90;;;;;;4154624;28;20200;-70
2022/06/26 10:08:04;;;;;;;1.50;1.40;;;25.30;53.90;;;;;;4130022;28;20173;-69
2022/06/26 10:10:05;;;;;;;2.27;2.17;;;25.20;55.20;;;;;;4160762;28;20169;-72
2022/06/26 10:12:06;;;;;;;3.87;3.67;;;25.40;53.00;;;;;;4145877;28;20213;-71
2022/06/26 10:14:18;;;;;;;1.50;1.40;;;25.70;52.70;;;;;;4142725;28;20241;-71
2022/06/26 10:16:26;;;;;;;22.00;20.87;;;25.90;53.10;;;;;;4148513;28;20176;-71
2022/06/26 10:18:42;;;;;;;31.13;29.63;;;25.70;50.50;;;;;;4140166;28;20645;-69
2022/06/26 10:20:44;;;;;;;6.57;6.27;;;24.70;53.50;;;;;;4151438;28;20176;-70
2022/06/26 10:22:45;;;;;;;1.93;1.83;;;24.40;55.30;;;;;;4155201;28;20847;-71
2022/06/26 10:24:53;;;;;;;3.50;3.30;;;23.80;57.20;;;;;;4134638;28;20173;-68
2022/06/26 10:26:56;;;;;;;8.07;7.70;;;24.10;58.60;;;;;;4154344;28;20267;-70
2022/06/26 10:29:03;;;;;;;3.87;3.67;;;24.80;56.70;;;;;;4153613;28;20565;-70
2022/06/26 10:31:07;;;;;;;26.10;24.73;;;24.70;56.80;;;;;;4151997;28;20263;-70
2022/06/26 10:33:10;;;;;;;6.23;5.90;;;24.70;56.20;;;;;;4155241;28;20217;-71
2022/06/26 10:35:13;;;;;;;6.77;6.47;;;24.50;57.00;;;;;;4134024;28;20178;-71
2022/06/26 10:37:13;;;;;;;6.40;6.10;;;24.40;57.70;;;;;;4155786;28;20181;-74
2022/06/26 10:39:14;;;;;;;11.90;11.30;;;24.80;56.80;;;;;;4144671;28;20217;-69
2022/06/26 10:43:48;;;;;;;10.53;9.93;;;24.40;57.00;;;;;;4164586;28;20203;-69
2022/06/26 10:45:53;;;;;;;9.13;8.63;;;25.00;55.40;;;;;;4138398;28;20987;-71
2022/06/26 10:48:02;;;;;;;2.37;2.20;;;25.50;54.80;;;;;;4148309;28;20223;-71